Terminal Aerodrome Forecast
Issued by NWS Cleveland, OH

Home | Current Version | Previous Version | Graphics & Text | Print | Product List | Glossary On
Versions: 1 2 3 4 5 6 7 8 9 10 11 12 13 14 15 16 17 18 19 20 21 22 23 24 25 26
000
FTUS41 KCLE 271100
TAFCAK
TAF
KCAK 271137Z 2712/2812 30008KT 5SM BR OVC006
      TEMPO 2712/2714 3SM -SHSN
     FM271600 30010KT P6SM SCT006 OVC025
     FM271900 29010KT P6SM OVC035
     FM272300 29008KT P6SM OVC025
      TEMPO 2723/2803 3SM -SHSN=

USA.gov is the U.S. government's official web portal to all federal, state and local government web resources and services.